Time,TemperatureF,DewpointF,PressureIn,WindDirection,WindDirectionDegrees,WindSpeedMPH,WindSpeedGustMPH,Humidity,HourlyPrecipIn,Conditions,Clouds,dailyrainin,SolarRadiationWatts/m^2,SoftwareType,DateUTC
2013-03-09 00:00:00,44.4,41.7,29.50,SE,132,13.0,14.0,90,0.00,,,0.00,0,Wunderground v.1.15,2013-03-09 00:00:00,
2013-03-09 00:30:00,44.2,41.5,29.51,ESE,115,13.0,13.0,90,0.00,,,0.00,0,Wunderground v.1.15,2013-03-09 00:30:00,
2013-03-09 01:00:00,44.0,41.3,29.51,SE,126,15.0,15.0,90,0.00,,,0.00,0,Wunderground v.1.15,2013-03-09 01:00:00,
2013-03-09 01:30:00,43.9,41.2,29.51,ESE,105,16.0,16.0,90,0.00,,,0.00,0,Wunderground v.1.15,2013-03-09 01:30:00,
2013-03-09 02:00:00,44.1,41.6,29.52,ESE,107,12.0,14.0,91,0.00,,,0.00,0,Wunderground v.1.15,2013-03-09 02:00:00,
2013-03-09 02:30:00,43.9,41.4,29.51,ESE,119,15.0,15.0,91,0.00,,,0.00,0,Wunderground v.1.15,2013-03-09 02:30:00,
2013-03-09 03:00:00,43.8,41.3,29.51,SE,129,15.0,15.0,91,0.00,,,0.00,0,Wunderground v.1.15,2013-03-09 03:00:00,
2013-03-09 03:30:00,43.9,41.4,29.51,ESE,114,17.0,18.0,91,0.00,,,0.00,0,Wunderground v.1.15,2013-03-09 03:30:00,
2013-03-09 04:00:00,43.7,41.5,29.51,ESE,109,15.0,15.0,92,0.00,,,0.00,0,Wunderground v.1.15,2013-03-09 04:00:00,
2013-03-09 04:30:00,43.6,41.1,29.51,ESE,113,16.0,16.0,91,0.00,,,0.00,0,Wunderground v.1.15,2013-03-09 04:30:00,
2013-03-09 05:00:00,43.5,41.0,29.51,ESE,112,15.0,19.0,91,0.00,,,0.00,0,Wunderground v.1.15,2013-03-09 05:00:00,
2013-03-09 05:30:00,43.4,40.9,29.52,ESE,111,15.0,16.0,91,0.00,,,0.00,0,Wunderground v.1.15,2013-03-09 05:30:00,
2013-03-09 06:00:00,43.4,40.9,29.52,ESE,120,16.0,16.0,91,0.00,,,0.00,0,Wunderground v.1.15,2013-03-09 06:00:00,
2013-03-09 06:29:00,43.3,40.8,29.53,ESE,113,14.0,14.0,91,0.00,,,0.01,0,Wunderground v.1.15,2013-03-09 06:29:00,
2013-03-09 07:00:00,43.3,40.8,29.54,SE,124,15.0,15.0,91,0.12,,,0.04,0,Wunderground v.1.15,2013-03-09 07:00:00,
2013-03-09 07:30:00,43.3,40.8,29.55,ESE,120,14.0,14.0,91,0.00,,,0.05,0,Wunderground v.1.15,2013-03-09 07:30:00,
2013-03-09 08:00:00,43.2,40.8,29.56,ESE,109,14.0,15.0,91,0.00,,,0.05,9,Wunderground v.1.15,2013-03-09 08:00:00,
2013-03-09 08:30:00,43.1,40.7,29.57,ESE,107,15.0,15.0,91,0.00,,,0.05,9,Wunderground v.1.15,2013-03-09 08:30:00,
2013-03-09 09:00:00,43.1,40.7,29.58,SE,125,15.0,19.0,91,0.00,,,0.06,21,Wunderground v.1.15,2013-03-09 09:00:00,
2013-03-09 09:30:00,43.2,40.8,29.58,ESE,117,14.0,14.0,91,0.00,,,0.06,42,Wunderground v.1.15,2013-03-09 09:30:00,
2013-03-09 10:00:00,43.2,40.8,29.59,ESE,123,12.0,14.0,91,0.00,,,0.06,35,Wunderground v.1.15,2013-03-09 10:00:00,
2013-03-09 10:29:00,43.2,40.8,29.59,SE,126,13.0,13.0,91,0.00,,,0.06,32,Wunderground v.1.15,2013-03-09 10:29:00,
2013-03-09 11:00:00,43.0,40.8,29.60,East,84,16.0,16.0,92,0.00,,,0.06,30,Wunderground v.1.15,2013-03-09 11:00:00,
2013-03-09 11:30:00,42.9,40.7,29.61,ESE,113,12.0,18.0,92,0.00,,,0.07,35,Wunderground v.1.15,2013-03-09 11:30:00,
2013-03-09 12:00:00,42.8,40.4,29.61,East,97,13.0,13.0,91,0.00,,,0.07,33,Wunderground v.1.15,2013-03-09 12:00:00,
2013-03-09 12:30:00,42.4,40.0,29.62,ESE,103,12.0,12.0,91,0.00,,,0.08,28,Wunderground v.1.15,2013-03-09 12:30:00,
2013-03-09 13:00:00,42.2,39.8,29.63,East,86,12.0,12.0,91,0.00,,,0.09,32,Wunderground v.1.15,2013-03-09 13:00:00,
2013-03-09 13:29:00,42.0,39.6,29.63,ESE,104,14.0,16.0,91,0.04,,,0.10,35,Wunderground v.1.15,2013-03-09 13:29:00,
2013-03-09 14:00:00,41.9,39.5,29.64,East,85,12.0,12.0,91,0.00,,,0.11,37,Wunderground v.1.15,2013-03-09 14:00:00,
2013-03-09 14:30:00,41.7,39.3,29.64,ESE,113,14.0,19.0,91,0.00,,,0.12,67,Wunderground v.1.15,2013-03-09 14:30:00,
2013-03-09 15:00:00,41.6,39.2,29.64,East,80,15.0,17.0,91,0.00,,,0.13,56,Wunderground v.1.15,2013-03-09 15:00:00,
2013-03-09 15:30:00,41.4,39.0,29.64,ENE,68,15.0,15.0,91,0.00,,,0.13,47,Wunderground v.1.15,2013-03-09 15:30:00,
2013-03-09 16:00:00,41.4,39.0,29.64,East,85,16.0,16.0,91,0.00,,,0.14,134,Wunderground v.1.15,2013-03-09 16:00:00,
2013-03-09 16:30:00,41.6,39.2,29.64,East,87,17.0,17.0,91,0.04,,,0.16,88,Wunderground v.1.15,2013-03-09 16:30:00,
2013-03-09 17:00:00,41.1,38.7,29.65,ESE,119,17.0,22.0,91,0.00,,,0.17,37,Wunderground v.1.15,2013-03-09 17:00:00,
2013-03-09 17:30:00,41.0,39.1,29.66,East,90,15.0,15.0,93,0.00,,,0.17,19,Wunderground v.1.15,2013-03-09 17:30:00,
2013-03-09 18:00:00,40.9,39.6,29.66,ESE,107,16.0,19.0,95,0.00,,,0.17,0,Wunderground v.1.15,2013-03-09 18:00:00,
2013-03-09 18:30:00,40.6,39.0,29.67,ENE,77,14.0,14.0,94,0.00,,,0.17,0,Wunderground v.1.15,2013-03-09 18:30:00,
2013-03-09 19:00:00,40.6,39.3,29.67,East,93,15.0,16.0,95,0.00,,,0.17,0,Wunderground v.1.15,2013-03-09 19:00:00,
2013-03-09 19:30:00,40.7,39.9,29.68,East,92,14.0,15.0,97,0.00,,,0.17,0,Wunderground v.1.15,2013-03-09 19:30:00,
2013-03-09 20:00:00,40.7,40.7,29.69,East,85,15.0,18.0,100,0.00,,,0.17,0,Wunderground v.1.15,2013-03-09 20:00:00,
2013-03-09 20:29:00,40.7,40.7,29.69,ENE,76,15.0,15.0,100,0.00,,,0.17,0,Wunderground v.1.15,2013-03-09 20:29:00,
2013-03-09 21:00:00,40.6,40.6,29.69,East,96,16.0,20.0,100,0.00,,,0.17,0,Wunderground v.1.15,2013-03-09 21:00:00,
2013-03-09 21:30:00,40.4,40.4,29.69,East,84,14.0,14.0,100,0.00,,,0.17,0,Wunderground v.1.15,2013-03-09 21:30:00,
2013-03-09 22:00:00,40.4,40.4,29.70,East,101,15.0,21.0,100,0.00,,,0.17,0,Wunderground v.1.15,2013-03-09 22:00:00,
2013-03-09 22:30:00,40.2,40.2,29.71,ESE,106,15.0,18.0,100,0.00,,,0.17,0,Wunderground v.1.15,2013-03-09 22:30:00,
2013-03-09 23:00:00,39.7,39.7,29.70,East,90,17.0,21.0,100,0.04,,,0.19,0,Wunderground v.1.15,2013-03-09 23:00:00,
2013-03-09 23:29:00,39.8,39.8,29.71,ESE,105,19.0,21.0,100,0.00,,,0.19,0,Wunderground v.1.15,2013-03-09 23:29:00,